Boyd Deep Canyon Reserve, California Weather observations

Data are for 10 minute period ending at time listed.
 Day   Time   Solar   Ave.   Ave.  Ave.  Vector  Max.   Baro.   Total    
  of    of     Rad.   Air    Rel.  Wind   Wind   Wind  Press.  Precip.   
Year   Day            Temp.  Hum.  Speed  Dir.   Gust                    
2015   (PST)  Kw/m2    F      %     mph   deg.    mph    mb.     in.     
-------------------------------------------------------------------------
 213    6:30   0.21   87.3    29    2.4   185     3.8   977.3    0.00 
 213    6:40   0.25   89.3    26    1.6    37     3.4   977.4    0.00 
 213    6:50   0.28   90.7    25    0.6   353     2.2   977.3    0.00 
 213    7:00   0.33   92.7    23    0.6    83     1.8   977.3    0.00 
 213    7:10   0.36   92.8    23    1.3    61     2.8   977.3    0.00 
 213    7:20   0.38   92.0    24    2.1    58     3.5   977.4    0.00 
 213    7:30   0.39   92.3    23    1.9   357     3.9   977.4    0.00 
 213    7:40   0.40   92.5    22    5.3    39    10.1   977.4    0.00 
 213    7:50   0.51   93.7    21    5.1    33     8.1   977.4    0.00 
 213    8:00   0.54   94.5    20    5.2    44    11.5   977.5    0.00 
 213    8:10   0.57   93.9    22    6.2    67     9.6   977.6    0.00 
 213    8:20   0.60   94.2    23    6.2    30     9.1   977.6    0.00 
 213    8:30   0.62   93.6    25    6.7   349    10.3   977.7    0.00 
 213    8:40   0.66   94.2    24    4.9   351     8.8   977.7    0.00 
 213    8:50   0.69   94.0    24    7.0   348    10.1   977.7    0.00 
 213    9:00   0.71   94.6    18    6.8   338     8.9   977.7    0.00 
 213    9:10   0.74   95.3    18    5.0   360     7.8   977.7    0.00 
 213    9:20   0.77   96.4    18    4.3   358     8.2   977.6    0.00 
 213    9:30   0.80   96.7    18    5.3     9     9.6   977.7    0.00 
 213    9:40   0.82   96.9    17    5.4     1     8.6   977.7    0.00 
 213    9:50   0.84   97.7    16    4.8   360     8.8   977.7    0.00 
 213   10:00   0.86   98.0    16    5.0     3     9.5   977.7    0.00 
 213   10:10   0.88   98.3    16    6.0     3    10.4   977.8    0.00 
 213   10:20   0.90   98.2    17    4.7   346     8.5   977.7    0.00 
 213   10:30   0.91   98.6    16    4.1     3     8.5   977.7    0.00 
 213   10:40   0.93   99.7    16    6.1   355     9.2   977.7    0.00 
 213   10:50   0.94   99.5    16    3.5   350     7.9   977.5    0.00 
 213   11:00   0.95  100.7    16    4.7    15     8.8   977.4    0.00 
 213   11:10   0.96  100.3    15    6.0    61    10.9   977.3    0.00 
 213   11:20   0.97  100.6    14    6.0    57    10.6   977.1    0.00 
 213   11:30   0.97  100.9    14    4.3    79     9.8   977.1    0.00 
 213   11:40   0.98  100.5    14    4.3    68     9.7   976.9    0.00 
 213   11:50   0.98  101.5    13    4.2    56    11.8   976.8    0.00 
 213   12:00   0.99  101.9    13    4.9    47    11.7   976.7    0.00 
 213   12:10   0.99  101.8    13    4.4    70    11.4   976.6    0.00 
 213   12:20   0.98  102.4    11    7.1    38    14.6   976.5    0.00 
 213   12:30   0.97  102.8    11    6.7    50    12.9   976.4    0.00 
 213   12:40   1.00  103.2    12    6.2    51    14.0   976.2    0.00 
 213   12:50   0.99  103.3    11    7.0    50    13.6   976.1    0.00 
 213   13:00   0.97  103.1    12    7.8    60    16.0   976.0    0.00 
 213   13:10   0.96  103.0    11    6.8    68    15.1   975.9    0.00 
 213   13:20   0.96  103.2    11    8.3    70    15.3   975.8    0.00 
 213   13:30   0.96  103.6    11    9.2    43    15.3   975.6    0.00 
 213   13:40   0.97  104.6    10    7.4    55    14.2   975.4    0.00 
 213   13:50   0.97  103.9    11    8.0    49    15.6   975.2    0.00 
 213   14:00   0.95  104.6    11    7.9    56    16.1   975.1    0.00 
 213   14:10   0.92  104.3    11    7.6    61    16.4   974.9    0.00 
 213   14:20   0.86  105.0    11    8.6    45    17.1   974.8    0.00 
 213   14:30   0.85  104.8    11    7.6    33    15.9   974.6    0.00 
 213   14:40   0.81  104.9    11    8.9    48    16.1   974.6    0.00 
 213   14:50   0.67  104.1    12    7.7    50    14.0   974.5    0.00 
 213   15:00   0.54  103.8    12    7.6    55    19.0   974.4    0.00 
 213   15:10   0.46  103.6    12    6.2    49    11.5   974.4    0.00 
 213   15:20   0.40  103.7    12    6.8    46    15.1   974.3    0.00 
 213   15:30   0.64  104.0    12    7.7    54    15.2   974.3    0.00 
 213   15:40   0.55  104.5    12    7.4    35    15.7   974.1    0.00 
 213   15:50   0.63  104.6    12    6.9    53    14.5   974.1    0.00 
 213   16:00   0.40  104.5    12    5.8    62    11.5   974.0    0.00 
 213   16:10   0.22  103.5    12    7.0    52    12.6   973.9    0.00 
 213   16:20   0.13  102.9    12    5.9    31    12.4   973.7    0.00 
 213   16:30   0.12  102.9    12    5.5    59     9.3   973.6    0.00 
 213   16:40   0.12  102.6    12    5.2    61    11.2   973.5    0.00 
 213   16:50   0.10  102.4    12    5.9    64    11.5   973.3    0.00 
 213   17:00   0.08  102.3    12    5.4    61     9.3   973.2    0.00 
 213   17:10   0.07  102.1    12    3.9    67    10.2   973.1    0.00 
 213   17:20   0.07  102.1    12    4.1    71     6.8   973.1    0.00 
 213   17:30   0.06  101.7    12    6.2    58    10.3   973.1    0.00 
 213   17:40   0.10  101.7    13    7.6    86    13.1   973.1    0.00 
 213   17:50   0.03  101.5    13    8.6   188    18.3   973.1    0.00 
 213   18:00   0.03  100.7    13   12.6   176    20.8   973.1    0.00 
 213   18:10   0.03  100.5    13    8.9   180    15.5   973.2    0.00 
 213   18:20   0.01   99.9    13    9.5   181    17.5   973.3    0.00 
 213   18:30   0.01   99.5    13   10.2   202    17.8   973.4    0.00 
 213   18:40   0.01   99.0    12   12.2   208    23.2   973.5    0.00 
 213   18:50   0.00   98.4    13   11.1   203    18.0   973.6    0.00 
 213   19:00   0.00   97.9    13   10.6   185    21.6   973.6    0.00 
 213   19:10   0.00   97.5    14    9.5   191    14.0   973.7    0.00 
 213   19:20   0.00   97.2    14   10.2   190    16.8   973.7    0.00 
 213   19:30   0.00   96.8    14    9.2   191    20.2   973.7    0.00 
 213   19:40   0.00   96.4    14    9.8   197    17.2   973.7    0.00 
 213   19:50   0.00   96.3    14    9.8   181    15.6   973.8    0.00 
 213   20:00   0.00   96.3    13   11.2   178    17.2   973.8    0.00 
 213   20:10   0.00   96.2    13   13.8   174    20.3   973.9    0.00 
 213   20:20   0.00   96.1    13   13.4   175    18.3   974.0    0.00 
 213   20:30   0.00   96.0    12   14.4   175    20.6   974.1    0.00 
 213   20:40   0.00   96.1    12   15.4   178    22.1   974.2    0.00 
 213   20:50   0.00   96.2    12   13.2   177    20.8   974.2    0.00 
 213   21:00   0.00   96.3    11   12.0   180    20.7   974.2    0.00 
 213   21:10   0.00   96.1    11   12.7   174    21.0   974.2    0.00 
 213   21:20   0.00   96.0    11   12.9   176    19.9   974.2    0.00 
 213   21:30   0.00   95.8    11   11.3   177    17.0   974.2    0.00 
 213   21:40   0.00   95.7    12    6.2   190    12.6   974.2    0.00 
 213   21:50   0.00   95.2    12    5.5   184    12.0   974.2    0.00 
 213   22:00   0.00   93.8    19    5.5   341    10.8   974.2    0.00 
 213   22:10   0.00   89.5    30    4.2    88     7.2   974.1    0.00 
 213   22:20   0.00   88.6    31    4.9    49     9.2   973.9    0.00 
 213   22:30   0.00   88.3    31    3.3    47     5.8   973.8    0.00 
 213   22:40   0.00   88.2    30    3.1    16     5.3   973.8    0.00 
 213   22:50   0.00   88.0    31    3.4    90     6.1   973.8    0.00 
 213   23:00   0.00   88.2    30    4.7    64     7.8   973.9    0.00 
 213   23:10   0.00   87.4    32    4.2    58     7.5   974.0    0.00 
 213   23:20   0.00   87.0    33    2.4    60     4.7   973.9    0.00 
 213   23:30   0.00   86.4    34    2.5    50     3.4   973.9    0.00 
 213   23:40   0.00   86.2    32    2.6   317     6.1   973.7    0.00 
 213   23:50   0.00   92.2    13    8.2   185    12.1   973.6    0.00 
 214    0:00   0.00   92.9    12    6.4   199    11.4   973.6    0.00 
 214    0:10   0.00   93.2    12    7.8   191    17.5   973.7    0.00 
 214    0:20   0.00   94.0    12    7.1   176    13.4   973.8    0.00 
 214    0:30   0.00   87.2    32    5.5    30    10.5   973.9    0.00 
 214    0:40   0.00   84.5    37    5.6    56     9.6   973.9    0.00 
 214    0:50   0.00   83.8    38    3.9    55     7.7   973.8    0.00 
 214    1:00   0.00   83.5    38    2.3    50     4.1   973.8    0.00 
 214    1:10   0.00   83.3    39    3.6    46     7.2   973.7    0.00 
 214    1:20   0.00   83.2    39    3.2    57     6.7   973.7    0.00 
 214    1:30   0.00   82.9    39    2.3    42     5.7   973.7    0.00 
 214    1:40   0.00   82.9    39    3.9    46     7.7   973.7    0.00 
 214    1:50   0.00   82.8    39    2.2    41     3.9   973.7    0.00 
 214    2:00   0.00   83.4    34    3.6   225    16.0   973.6    0.00 
 214    2:10   0.00   90.8    14   11.8   212    15.9   973.6    0.00 
 214    2:20   0.00   91.3    14    8.8   237    14.0   973.4    0.00 
 214    2:30   0.00   91.2    14    6.6   222    12.8   973.4    0.00 
 214    2:40   0.00   91.4    14    9.2   212    14.6   973.3    0.00 
 214    2:50   0.00   91.3    14   10.0   221    14.7   973.3    0.00 
 214    3:00   0.00   88.4    26    6.0   130    11.0   973.4    0.00 
 214    3:10   0.00   81.2    43    5.2    82     8.7   973.5    0.00 
 214    3:20   0.00   80.9    44    3.8    75     6.2   973.6    0.00 
 214    3:30   0.00   80.6    44    2.5    70     4.8   973.7    0.00 
 214    3:40   0.00   80.6    44    1.1   107     2.7   973.8    0.00 
 214    3:50   0.00   80.4    44    0.9   226     2.6   973.9    0.00 
 214    4:00   0.00   80.1    44    1.2   107     2.9   973.8    0.00 
 214    4:10   0.00   80.4    42    2.0    48     3.2   973.8    0.00 
 214    4:20   0.00   82.0    34    1.9   119     4.5   973.8    0.00 
 214    4:30   0.00   88.1    17    9.6   222    14.8   973.8    0.00 
 214    4:40   0.00   89.8    16    7.2   188    12.1   973.8    0.00 
 214    4:50   0.00   90.0    16    9.5   167    15.1   973.7    0.00 
 214    5:00   0.00   90.5    16    9.0   167    16.0   973.7    0.00 
 214    5:10   0.00   89.9    16    5.1   198     9.6   973.7    0.00 
 214    5:20   0.01   89.4    16    6.4   200    11.6   973.8    0.00 
 214    5:30   0.01   89.4    17    6.5   210    11.9   973.9    0.00 
 214    5:40   0.01   83.0    36    3.8    51     6.7   974.0    0.00 
 214    5:50   0.04   81.2    38    3.1    32     4.4   974.1    0.00 
 214    6:00   0.11   82.7    35    2.5    42     3.9   974.1    0.00 
 214    6:10   0.15   84.5    33    2.3    29     3.9   974.2    0.00 
 214    6:20   0.18   84.8    30    4.0    48     5.6   974.3    0.00 

Return to Boyd Deep Canyon Reserve graphs page.


Western Regional Climate Center,wrcc@dri.edu